createdAt,value
2023-02-23T00:00:58.507Z,5.40
2023-02-23T00:01:58.495Z,5.60
2023-02-23T00:02:58.578Z,3.60
2023-02-23T00:03:58.484Z,5.60
2023-02-23T00:04:58.471Z,5.40
2023-02-23T00:05:58.455Z,5.60
2023-02-23T00:06:58.526Z,4.80
2023-02-23T00:07:58.435Z,3.90
2023-02-23T00:08:58.432Z,5.90
2023-02-23T00:09:58.403Z,4.40
2023-02-23T00:10:58.424Z,4.70
2023-02-23T00:11:58.390Z,4.10
2023-02-23T00:12:58.380Z,4.90
2023-02-23T00:13:58.386Z,4.10
2023-02-23T00:14:58.360Z,4.30
2023-02-23T00:15:58.348Z,4.90
2023-02-23T00:16:58.338Z,5.50
2023-02-23T00:17:58.322Z,5.10
2023-02-23T00:18:58.364Z,5.30
2023-02-23T00:19:58.315Z,5.20
2023-02-23T00:20:58.300Z,4.00
2023-02-23T00:21:58.277Z,5.30
2023-02-23T00:22:58.278Z,4.60
2023-02-23T00:23:58.269Z,5.50
2023-02-23T00:24:58.259Z,4.90
2023-02-23T00:25:58.242Z,4.50
2023-02-23T00:26:58.240Z,4.10
2023-02-23T00:27:58.216Z,4.60
2023-02-23T00:28:58.207Z,4.50
2023-02-23T00:29:58.210Z,5.70
2023-02-23T00:30:59.902Z,4.40
2023-02-23T00:31:58.337Z,6.40
2023-02-23T00:32:58.169Z,5.90
2023-02-23T00:33:58.164Z,5.40
2023-02-23T00:34:58.164Z,4.20
2023-02-23T00:35:58.135Z,4.10
2023-02-23T00:36:58.124Z,5.10
2023-02-23T00:37:58.112Z,4.30
2023-02-23T00:38:58.108Z,4.00
2023-02-23T00:39:58.100Z,4.60
2023-02-23T00:40:58.085Z,5.30
2023-02-23T00:41:58.075Z,5.60
2023-02-23T00:42:58.101Z,4.30
2023-02-23T00:43:58.049Z,4.90
2023-02-23T00:44:58.046Z,4.30
2023-02-23T00:45:58.071Z,4.50
2023-02-23T00:46:58.035Z,4.40
2023-02-23T00:47:58.101Z,5.60
2023-02-23T00:48:58.011Z,6.00
2023-02-23T00:49:58.001Z,5.30
2023-02-23T00:50:57.989Z,5.40
2023-02-23T00:51:57.991Z,4.90
2023-02-23T00:52:57.970Z,4.40
2023-02-23T00:53:57.951Z,4.50
2023-02-23T00:54:57.958Z,6.80
2023-02-23T00:55:57.926Z,4.80
2023-02-23T00:56:57.920Z,5.50
2023-02-23T00:57:57.924Z,4.70
2023-02-23T00:58:57.903Z,4.80
2023-02-23T00:59:57.903Z,4.70
2023-02-23T01:00:57.918Z,3.60
2023-02-23T01:01:57.864Z,5.70
2023-02-23T01:02:57.862Z,4.80
2023-02-23T01:03:57.844Z,5.30
2023-02-23T01:04:57.852Z,4.50
2023-02-23T01:05:57.821Z,5.40
2023-02-23T01:06:57.835Z,4.30
2023-02-23T01:07:57.803Z,5.80
2023-02-23T01:08:57.805Z,7.80
2023-02-23T01:09:57.776Z,4.60
2023-02-23T01:10:57.779Z,3.90
2023-02-23T01:11:57.749Z,4.40
2023-02-23T01:12:57.753Z,4.10
2023-02-23T01:13:57.732Z,5.20
2023-02-23T01:14:57.741Z,6.00
2023-02-23T01:15:57.741Z,5.30
2023-02-23T01:16:57.721Z,5.60
2023-02-23T01:17:57.694Z,5.70
2023-02-23T01:18:57.690Z,5.20
2023-02-23T01:19:57.673Z,4.40
2023-02-23T01:20:57.669Z,5.30
2023-02-23T01:21:57.667Z,5.50
2023-02-23T01:22:57.657Z,4.80
2023-02-23T01:23:57.652Z,4.90
2023-02-23T01:24:57.630Z,5.50
2023-02-23T01:25:57.609Z,5.30
2023-02-23T01:26:57.633Z,3.80
2023-02-23T01:27:57.613Z,5.00
2023-02-23T01:28:57.611Z,4.70
2023-02-23T01:29:57.584Z,4.60
2023-02-23T01:30:57.683Z,6.90
2023-02-23T01:31:57.602Z,4.20
2023-02-23T01:32:57.551Z,5.20
2023-02-23T01:33:57.526Z,4.80
2023-02-23T01:34:57.522Z,4.30
2023-02-23T01:35:57.499Z,4.00
2023-02-23T01:36:57.507Z,4.00
2023-02-23T01:37:57.493Z,4.80
2023-02-23T01:38:57.477Z,5.30
2023-02-23T01:39:57.489Z,4.70
2023-02-23T01:40:57.460Z,5.70
2023-02-23T01:41:57.445Z,5.10
2023-02-23T01:42:57.447Z,5.60
2023-02-23T01:43:57.452Z,5.70
2023-02-23T01:44:57.416Z,5.00
2023-02-23T01:45:57.439Z,5.30
2023-02-23T01:46:57.409Z,4.80
2023-02-23T01:47:57.434Z,5.20
2023-02-23T01:48:57.380Z,5.40
2023-02-23T01:49:57.380Z,5.40
2023-02-23T01:50:57.364Z,4.70
2023-02-23T01:51:57.358Z,4.30
2023-02-23T01:52:57.346Z,4.00
2023-02-23T01:53:57.344Z,4.40
2023-02-23T01:54:57.308Z,5.10
2023-02-23T01:55:57.316Z,4.90
2023-02-23T01:56:57.288Z,4.20
2023-02-23T01:57:57.285Z,5.00
2023-02-23T01:58:57.264Z,5.30
2023-02-23T01:59:57.260Z,4.40
2023-02-23T02:00:57.276Z,5.00
2023-02-23T02:01:57.322Z,5.10
2023-02-23T02:02:57.224Z,4.50
2023-02-23T02:03:57.218Z,5.30
2023-02-23T02:04:57.203Z,5.40
2023-02-23T02:05:57.247Z,6.20
2023-02-23T02:06:57.185Z,4.80
2023-02-23T02:07:57.176Z,5.80
2023-02-23T02:08:57.170Z,5.90
2023-02-23T02:09:57.157Z,5.40
2023-02-23T02:10:57.149Z,5.60
2023-02-23T02:11:57.147Z,6.10
2023-02-23T02:12:57.126Z,4.80
2023-02-23T02:13:57.113Z,5.20
2023-02-23T02:14:57.103Z,4.80
2023-02-23T02:15:57.148Z,5.00
2023-02-23T02:16:57.097Z,5.00
2023-02-23T02:17:57.093Z,4.90
2023-02-23T02:18:57.090Z,4.70
2023-02-23T02:19:57.049Z,6.20
2023-02-23T02:20:57.045Z,5.30
2023-02-23T02:21:57.044Z,4.80
2023-02-23T02:22:57.069Z,4.70
2023-02-23T02:23:57.040Z,5.40
2023-02-23T02:24:57.038Z,5.70
2023-02-23T02:25:56.990Z,5.50
2023-02-23T02:26:56.980Z,5.60
2023-02-23T02:27:56.991Z,5.70
2023-02-23T02:28:56.966Z,5.10
2023-02-23T02:29:56.950Z,4.80
2023-02-23T02:30:56.963Z,6.30
2023-02-23T02:31:57.088Z,5.30
2023-02-23T02:32:56.914Z,4.60
2023-02-23T02:33:56.910Z,6.30
2023-02-23T02:34:56.897Z,6.60
2023-02-23T02:35:56.903Z,5.60
2023-02-23T02:36:56.889Z,4.80
2023-02-23T02:37:56.889Z,5.00
2023-02-23T02:38:56.853Z,4.70
2023-02-23T02:39:56.846Z,4.90
2023-02-23T02:40:56.834Z,4.60
2023-02-23T02:41:56.834Z,5.00
2023-02-23T02:42:56.823Z,4.20
2023-02-23T02:43:56.813Z,5.50
2023-02-23T02:44:56.792Z,6.20
2023-02-23T02:45:56.802Z,5.20
2023-02-23T02:46:56.775Z,5.90
2023-02-23T02:47:56.778Z,5.30
2023-02-23T02:48:56.750Z,5.90
2023-02-23T02:49:56.740Z,4.60
2023-02-23T02:50:56.757Z,5.80
2023-02-23T02:51:56.724Z,4.70
2023-02-23T02:52:56.709Z,5.20
2023-02-23T02:53:56.716Z,5.60
2023-02-23T02:54:56.688Z,5.20
2023-02-23T02:55:56.693Z,5.00
2023-02-23T02:56:56.666Z,4.50
2023-02-23T02:57:56.705Z,5.80
2023-02-23T02:58:56.647Z,5.30
2023-02-23T02:59:56.643Z,4.80
2023-02-23T03:00:56.628Z,4.90
2023-02-23T03:01:56.689Z,6.30
2023-02-23T03:02:56.631Z,5.40
2023-02-23T03:03:56.629Z,5.50
2023-02-23T03:04:56.613Z,8.30
2023-02-23T03:05:56.580Z,5.60
2023-02-23T03:06:56.568Z,4.60
2023-02-23T03:07:56.561Z,5.30
2023-02-23T03:08:56.565Z,4.70
2023-02-23T03:09:56.554Z,6.70
2023-02-23T03:10:56.522Z,4.80
2023-02-23T03:11:56.521Z,5.60
2023-02-23T03:12:56.509Z,5.40
2023-02-23T03:13:56.532Z,4.50
2023-02-23T03:14:56.489Z,4.50
2023-02-23T03:15:56.486Z,4.60
2023-02-23T03:16:56.454Z,5.80
2023-02-23T03:17:56.448Z,4.70
2023-02-23T03:18:56.436Z,5.50
2023-02-23T03:19:56.447Z,7.20
2023-02-23T03:20:56.416Z,7.10
2023-02-23T03:21:56.418Z,5.80
2023-02-23T03:22:57.081Z,5.80
2023-02-23T03:23:56.386Z,5.40
2023-02-23T03:24:56.389Z,4.90
2023-02-23T03:25:56.368Z,5.80
2023-02-23T03:26:56.370Z,4.90
2023-02-23T03:27:56.421Z,4.60
2023-02-23T03:28:56.331Z,5.50
2023-02-23T03:29:56.339Z,5.40
2023-02-23T03:30:56.372Z,5.10
2023-02-23T03:31:56.442Z,5.60
2023-02-23T03:32:56.283Z,4.90
2023-02-23T03:33:56.284Z,6.10
2023-02-23T03:34:56.275Z,6.40
2023-02-23T03:35:56.274Z,5.00
2023-02-23T03:36:56.247Z,5.40
2023-02-23T03:37:56.251Z,5.00
2023-02-23T03:38:56.222Z,5.20
2023-02-23T03:39:56.219Z,5.50
2023-02-23T03:40:56.204Z,5.00
2023-02-23T03:41:56.215Z,4.80
2023-02-23T03:42:56.200Z,5.90
2023-02-23T03:43:56.190Z,4.70
2023-02-23T03:44:56.177Z,4.70
2023-02-23T03:45:56.230Z,5.20
2023-02-23T03:46:56.145Z,5.50
2023-02-23T03:47:56.164Z,5.20
2023-02-23T03:48:56.132Z,4.50
2023-02-23T03:49:56.140Z,5.10
2023-02-23T03:50:56.114Z,5.20
2023-02-23T03:51:56.118Z,5.20
2023-02-23T03:52:56.112Z,5.00
2023-02-23T03:53:56.100Z,6.20
2023-02-23T03:54:56.057Z,5.80
2023-02-23T03:55:56.992Z,5.20
2023-02-23T03:56:56.055Z,5.70
2023-02-23T03:57:56.031Z,5.60
2023-02-23T03:58:56.027Z,7.60
2023-02-23T03:59:56.012Z,5.10
2023-02-23T04:00:55.995Z,6.80
2023-02-23T04:01:56.082Z,5.90
2023-02-23T04:02:55.983Z,7.00
2023-02-23T04:03:55.966Z,5.70
2023-02-23T04:04:55.959Z,5.60
2023-02-23T04:05:55.945Z,6.40
2023-02-23T04:06:55.945Z,4.90
2023-02-23T04:07:55.924Z,6.00
2023-02-23T04:08:55.932Z,5.60
2023-02-23T04:09:55.902Z,5.00
2023-02-23T04:10:55.889Z,5.50
2023-02-23T04:11:55.894Z,4.90
2023-02-23T04:12:55.909Z,5.90
2023-02-23T04:13:55.868Z,6.40
2023-02-23T04:14:55.855Z,6.40
2023-02-23T04:15:55.841Z,4.80
2023-02-23T04:16:55.843Z,6.00
2023-02-23T04:17:55.839Z,5.90
2023-02-23T04:18:55.806Z,6.30
2023-02-23T04:19:55.804Z,6.70
2023-02-23T04:20:55.815Z,4.60
2023-02-23T04:21:55.789Z,5.20
2023-02-23T04:22:56.110Z,6.40
2023-02-23T04:23:55.773Z,6.10
2023-02-23T04:24:55.758Z,5.60
2023-02-23T04:25:55.747Z,5.80
2023-02-23T04:26:55.748Z,5.40
2023-02-23T04:27:55.789Z,7.00
2023-02-23T04:28:55.705Z,5.80
2023-02-23T04:29:55.702Z,5.60
2023-02-23T04:30:55.736Z,5.20
2023-02-23T04:31:55.772Z,5.30
2023-02-23T04:32:55.674Z,6.60
2023-02-23T04:33:55.658Z,7.00
2023-02-23T04:34:55.647Z,5.10
2023-02-23T04:35:55.676Z,6.40
2023-02-23T04:36:55.626Z,5.20
2023-02-23T04:37:55.630Z,6.60
2023-02-23T04:38:55.612Z,6.10
2023-02-23T04:39:55.600Z,5.30
2023-02-23T04:40:55.584Z,7.30
2023-02-23T04:41:55.576Z,5.50
2023-02-23T04:42:55.576Z,5.70
2023-02-23T04:43:55.564Z,6.00
2023-02-23T04:44:55.539Z,6.60
2023-02-23T04:45:55.603Z,6.00
2023-02-23T04:46:55.519Z,7.10
2023-02-23T04:47:55.532Z,5.70
2023-02-23T04:48:55.502Z,5.50
2023-02-23T04:49:55.494Z,7.60
2023-02-23T04:50:55.500Z,5.70
2023-02-23T04:51:55.476Z,6.20
2023-02-23T04:52:55.475Z,6.00
2023-02-23T04:53:55.452Z,5.70
2023-02-23T04:54:55.443Z,6.40
2023-02-23T04:55:55.443Z,5.80
2023-02-23T04:56:55.414Z,5.30
2023-02-23T04:57:55.419Z,6.40
2023-02-23T04:58:55.400Z,5.10
2023-02-23T04:59:55.405Z,5.70
2023-02-23T05:00:56.007Z,5.90
2023-02-23T05:01:55.374Z,6.80
2023-02-23T05:02:55.380Z,5.20
2023-02-23T05:03:55.354Z,5.60
2023-02-23T05:04:55.400Z,6.10
2023-02-23T05:05:55.344Z,5.30
2023-02-23T05:06:55.313Z,5.50
2023-02-23T05:07:55.312Z,7.10
2023-02-23T05:08:55.305Z,6.10
2023-02-23T05:09:55.293Z,5.50
2023-02-23T05:10:55.281Z,5.90
2023-02-23T05:11:55.264Z,6.80
2023-02-23T05:12:55.267Z,4.70
2023-02-23T05:13:55.245Z,5.70
2023-02-23T05:14:55.225Z,5.10
2023-02-23T05:15:55.275Z,5.80
2023-02-23T05:16:55.213Z,5.60
2023-02-23T05:17:55.234Z,5.30
2023-02-23T05:18:55.182Z,6.10
2023-02-23T05:19:55.186Z,5.00
2023-02-23T05:20:55.162Z,5.70
2023-02-23T05:21:55.167Z,5.50
2023-02-23T05:22:56.123Z,5.90
2023-02-23T05:23:55.158Z,5.50
2023-02-23T05:24:57.354Z,4.90
2023-02-23T05:25:55.115Z,6.50
2023-02-23T05:26:55.095Z,5.80
2023-02-23T05:27:55.181Z,4.90
2023-02-23T05:28:55.083Z,5.50
2023-02-23T05:29:55.070Z,6.20
2023-02-23T05:30:55.135Z,5.70
2023-02-23T05:31:55.194Z,6.50
2023-02-23T05:32:55.029Z,6.60
2023-02-23T05:33:55.041Z,6.60
2023-02-23T05:35:00.995Z,5.60
2023-02-23T05:35:55.004Z,7.00
2023-02-23T05:36:54.982Z,5.50
2023-02-23T05:37:54.973Z,5.70
2023-02-23T05:38:54.973Z,5.30
2023-02-23T05:39:54.959Z,5.00
2023-02-23T05:40:54.954Z,6.20
2023-02-23T05:41:54.934Z,7.00
2023-02-23T05:42:54.922Z,4.80
2023-02-23T05:43:54.937Z,6.80
2023-02-23T05:44:54.898Z,5.90
2023-02-23T05:45:54.924Z,8.50
2023-02-23T05:46:54.878Z,6.30
2023-02-23T05:47:54.863Z,7.10
2023-02-23T05:48:54.847Z,6.80
2023-02-23T05:49:54.845Z,7.10
2023-02-23T05:50:54.823Z,5.90
2023-02-23T05:51:54.825Z,5.80
2023-02-23T05:52:54.800Z,7.10
2023-02-23T05:53:54.800Z,8.40
2023-02-23T05:54:54.778Z,6.00
2023-02-23T05:55:54.784Z,6.20
2023-02-23T05:56:54.773Z,8.20
2023-02-23T05:57:54.753Z,7.90
2023-02-23T05:58:54.740Z,5.90
2023-02-23T05:59:54.741Z,6.10
2023-02-23T06:00:54.718Z,6.90
2023-02-23T06:01:54.717Z,6.80
2023-02-23T06:02:55.759Z,8.00
2023-02-23T06:03:54.755Z,5.70
2023-02-23T06:04:54.688Z,6.00
2023-02-23T06:05:54.619Z,5.80
2023-02-23T06:06:54.664Z,6.40
2023-02-23T06:07:54.716Z,7.20
2023-02-23T06:08:54.629Z,6.80
2023-02-23T06:09:54.614Z,6.10
2023-02-23T06:10:54.576Z,6.80
2023-02-23T06:11:54.549Z,6.00
2023-02-23T06:12:54.529Z,6.40
2023-02-23T06:13:54.516Z,6.70
2023-02-23T06:14:54.507Z,5.70
2023-02-23T06:15:54.537Z,5.60
2023-02-23T06:16:54.532Z,6.80
2023-02-23T06:17:54.488Z,6.60
2023-02-23T06:18:54.471Z,7.80
2023-02-23T06:19:54.466Z,7.50
2023-02-23T06:20:54.451Z,5.50
2023-02-23T06:21:54.454Z,6.80
2023-02-23T06:22:55.045Z,5.80
2023-02-23T06:23:54.464Z,6.10
2023-02-23T06:24:54.425Z,6.90
2023-02-23T06:25:54.385Z,6.50
2023-02-23T06:26:54.390Z,7.10
2023-02-23T06:27:54.365Z,7.40
2023-02-23T06:28:54.368Z,6.20
2023-02-23T06:29:54.347Z,6.10
2023-02-23T06:30:54.434Z,6.20
2023-02-23T06:31:54.489Z,4.90
2023-02-23T06:32:54.320Z,6.00
2023-02-23T06:33:54.305Z,5.60
2023-02-23T06:34:54.305Z,7.40
2023-02-23T06:35:54.287Z,8.90
2023-02-23T06:36:54.283Z,5.80
2023-02-23T06:37:54.269Z,7.30
2023-02-23T06:38:54.291Z,6.90
2023-02-23T06:39:54.239Z,7.00
2023-02-23T06:40:54.462Z,6.70
2023-02-23T06:41:54.214Z,5.70
2023-02-23T06:42:54.216Z,6.40
2023-02-23T06:43:54.196Z,7.10
2023-02-23T06:44:54.196Z,9.10
2023-02-23T06:45:54.183Z,7.00
2023-02-23T06:46:54.207Z,6.00
2023-02-23T06:47:54.181Z,6.50
2023-02-23T06:48:54.161Z,6.60
2023-02-23T06:49:54.138Z,7.00
2023-02-23T06:50:54.127Z,6.10
2023-02-23T06:51:54.116Z,7.00
2023-02-23T06:52:54.113Z,6.00
2023-02-23T06:53:54.115Z,5.90
2023-02-23T06:54:54.081Z,5.60
2023-02-23T06:55:54.067Z,7.60
2023-02-23T06:56:54.074Z,6.40
2023-02-23T06:57:54.072Z,6.70
2023-02-23T06:58:54.046Z,7.10
2023-02-23T06:59:54.023Z,5.80
2023-02-23T07:00:54.029Z,6.30
2023-02-23T07:01:54.091Z,8.30
2023-02-23T07:02:54.030Z,6.80
2023-02-23T07:03:54.010Z,6.80
2023-02-23T07:04:53.980Z,5.80
2023-02-23T07:05:53.983Z,5.80
2023-02-23T07:06:53.965Z,7.60
2023-02-23T07:07:54.015Z,5.80
2023-02-23T07:08:53.940Z,8.40
2023-02-23T07:09:53.932Z,8.10
2023-02-23T07:10:53.916Z,7.10
2023-02-23T07:11:53.906Z,6.80
2023-02-23T07:12:53.893Z,5.80
2023-02-23T07:13:53.884Z,6.20
2023-02-23T07:14:53.880Z,7.00
2023-02-23T07:15:53.854Z,6.60
2023-02-23T07:16:53.852Z,7.30
2023-02-23T07:17:53.831Z,5.90
2023-02-23T07:18:53.823Z,8.40
2023-02-23T07:19:53.820Z,8.90
2023-02-23T07:20:53.804Z,6.00
2023-02-23T07:21:53.788Z,6.10
2023-02-23T07:22:53.780Z,6.30
2023-02-23T07:23:53.766Z,6.00
2023-02-23T07:24:53.826Z,6.60
2023-02-23T07:25:53.752Z,7.80
2023-02-23T07:26:53.747Z,6.20
2023-02-23T07:27:53.733Z,6.20
2023-02-23T07:28:54.296Z,6.70
2023-02-23T07:29:53.724Z,8.00
2023-02-23T07:30:53.763Z,7.90
2023-02-23T07:31:53.695Z,7.70
2023-02-23T07:32:53.688Z,8.20
2023-02-23T07:33:53.667Z,7.40
2023-02-23T07:34:54.029Z,6.40
2023-02-23T07:35:53.643Z,6.80
2023-02-23T07:36:53.648Z,7.50
2023-02-23T07:37:53.634Z,6.50
2023-02-23T07:38:53.620Z,7.10
2023-02-23T07:39:53.601Z,6.50
2023-02-23T07:40:53.593Z,7.20
2023-02-23T07:41:53.576Z,7.10
2023-02-23T07:42:53.570Z,6.70
2023-02-23T07:43:53.570Z,8.40
2023-02-23T07:44:53.550Z,5.60
2023-02-23T07:45:53.615Z,7.10
2023-02-23T07:46:53.529Z,6.70
2023-02-23T07:47:53.524Z,7.00
2023-02-23T07:48:53.533Z,6.60
2023-02-23T07:49:53.502Z,6.40
2023-02-23T07:50:53.491Z,6.90
2023-02-23T07:51:53.474Z,6.30
2023-02-23T07:52:53.466Z,8.10
2023-02-23T07:53:53.492Z,6.60
2023-02-23T07:54:53.445Z,6.00
2023-02-23T07:55:53.439Z,6.50
2023-02-23T07:56:53.445Z,8.50
2023-02-23T07:57:53.434Z,8.10
2023-02-23T07:58:53.415Z,6.60
2023-02-23T07:59:53.388Z,6.00
2023-02-23T08:00:53.398Z,6.60
2023-02-23T08:01:53.388Z,8.60
2023-02-23T08:02:54.083Z,8.10
2023-02-23T08:03:53.373Z,7.60
2023-02-23T08:04:53.342Z,6.80
2023-02-23T08:05:53.343Z,6.90
2023-02-23T08:06:53.332Z,5.90
2023-02-23T08:07:53.310Z,7.00
2023-02-23T08:08:53.304Z,6.10
2023-02-23T08:09:53.282Z,7.30
2023-02-23T08:10:53.278Z,7.30
2023-02-23T08:11:53.281Z,7.40
2023-02-23T08:12:53.323Z,7.50
2023-02-23T08:13:53.238Z,7.80
2023-02-23T08:14:53.232Z,7.40
2023-02-23T08:15:53.235Z,6.10
2023-02-23T08:16:53.257Z,7.20
2023-02-23T08:17:53.211Z,9.10
2023-02-23T08:18:53.188Z,7.00
2023-02-23T08:19:53.216Z,8.00
2023-02-23T08:20:53.169Z,7.90
2023-02-23T08:21:53.164Z,6.90
2023-02-23T08:22:53.157Z,7.10
2023-02-23T08:23:53.156Z,7.40
2023-02-23T08:24:53.135Z,6.70
2023-02-23T08:25:53.112Z,7.40
2023-02-23T08:26:53.126Z,8.50
2023-02-23T08:27:53.106Z,7.50
2023-02-23T08:28:53.110Z,8.90
2023-02-23T08:29:53.103Z,7.20
2023-02-23T08:30:53.231Z,6.90
2023-02-23T08:31:53.315Z,7.70
2023-02-23T08:32:53.056Z,6.80
2023-02-23T08:33:53.074Z,7.40
2023-02-23T08:34:53.069Z,7.40
2023-02-23T08:35:53.004Z,7.90
2023-02-23T08:36:53.011Z,7.70
2023-02-23T08:37:53.002Z,7.10
2023-02-23T08:38:52.988Z,7.10
2023-02-23T08:39:52.984Z,8.40
2023-02-23T08:40:52.981Z,8.20
2023-02-23T08:41:52.963Z,6.10
2023-02-23T08:42:52.998Z,8.80
2023-02-23T08:43:52.929Z,7.00
2023-02-23T08:44:52.914Z,7.00
2023-02-23T08:45:53.000Z,6.90
2023-02-23T08:46:52.907Z,7.20
2023-02-23T08:47:52.878Z,6.80
2023-02-23T08:48:52.905Z,6.90
2023-02-23T08:49:52.856Z,6.80
2023-02-23T08:50:52.859Z,6.20
2023-02-23T08:51:52.830Z,7.90
2023-02-23T08:52:52.873Z,8.00
2023-02-23T08:53:52.815Z,6.90
2023-02-23T08:54:52.814Z,8.10
2023-02-23T08:55:52.800Z,7.00
2023-02-23T08:56:52.812Z,6.70
2023-02-23T08:57:52.785Z,8.20
2023-02-23T08:58:52.772Z,6.40
2023-02-23T08:59:52.754Z,6.50
2023-02-23T09:00:52.750Z,6.90
2023-02-23T09:01:52.805Z,6.70
2023-02-23T09:02:53.617Z,7.30
2023-02-23T09:03:52.706Z,6.30
2023-02-23T09:04:52.696Z,7.20
2023-02-23T09:05:52.682Z,7.30
2023-02-23T09:06:52.684Z,6.80
2023-02-23T09:07:52.665Z,6.60
2023-02-23T09:08:52.653Z,6.30
2023-02-23T09:09:52.641Z,6.50
2023-02-23T09:10:52.631Z,6.50
2023-02-23T09:11:52.662Z,7.90
2023-02-23T09:12:52.634Z,6.80
2023-02-23T09:13:52.604Z,6.30
2023-02-23T09:14:52.591Z,7.00
2023-02-23T09:15:52.603Z,6.80
2023-02-23T09:16:52.593Z,8.80
2023-02-23T09:17:52.559Z,7.70
2023-02-23T09:18:52.561Z,6.30
2023-02-23T09:19:52.533Z,6.00
2023-02-23T09:20:52.529Z,8.00
2023-02-23T09:21:52.524Z,6.80
2023-02-23T09:22:52.507Z,6.50
2023-02-23T09:23:52.489Z,6.90
2023-02-23T09:24:52.486Z,7.70
2023-02-23T09:25:52.471Z,7.00
2023-02-23T09:26:52.479Z,7.50
2023-02-23T09:27:52.462Z,5.60
2023-02-23T09:28:52.460Z,6.40
2023-02-23T09:29:52.430Z,6.90
2023-02-23T09:30:52.463Z,6.60
2023-02-23T09:31:52.516Z,6.80
2023-02-23T09:32:52.398Z,6.10
2023-02-23T09:33:52.391Z,6.40
2023-02-23T09:34:52.377Z,6.60
2023-02-23T09:35:52.434Z,7.70
2023-02-23T09:36:52.390Z,7.90
2023-02-23T09:37:52.382Z,6.90
2023-02-23T09:38:52.370Z,5.90
2023-02-23T09:39:52.349Z,7.10
2023-02-23T09:40:52.312Z,6.40
2023-02-23T09:41:52.302Z,5.70
2023-02-23T09:42:52.312Z,6.10
2023-02-23T09:44:13.283Z,5.90
2023-02-23T09:44:52.272Z,8.00
2023-02-23T09:45:52.326Z,7.10
2023-02-23T09:46:52.248Z,6.70
2023-02-23T09:47:52.254Z,6.70
2023-02-23T09:48:52.232Z,6.60
2023-02-23T09:49:52.233Z,7.40
2023-02-23T09:50:52.235Z,6.80
2023-02-23T09:51:52.343Z,7.20
2023-02-23T09:52:52.192Z,7.60
2023-02-23T09:53:52.181Z,8.10
2023-02-23T09:54:52.172Z,6.80
2023-02-23T09:55:52.159Z,5.80
2023-02-23T09:56:52.151Z,7.70
2023-02-23T09:57:52.129Z,5.80
2023-02-23T09:58:52.132Z,7.80
2023-02-23T09:59:52.121Z,6.40
2023-02-23T10:00:52.133Z,6.10
2023-02-23T10:01:52.166Z,6.00
2023-02-23T10:02:52.144Z,6.40
2023-02-23T10:03:52.067Z,6.80
2023-02-23T10:04:52.101Z,7.00
2023-02-23T10:05:52.047Z,6.70
2023-02-23T10:06:52.048Z,6.70
2023-02-23T10:07:52.035Z,8.70
2023-02-23T10:08:52.019Z,8.30
2023-02-23T10:09:52.021Z,6.50
2023-02-23T10:10:52.002Z,6.60
2023-02-23T10:11:52.001Z,7.20
2023-02-23T10:12:51.978Z,6.70
2023-02-23T10:13:51.963Z,5.90
2023-02-23T10:14:51.973Z,6.00
2023-02-23T10:15:52.041Z,7.10
2023-02-23T10:16:51.947Z,6.00
2023-02-23T10:17:51.938Z,7.20
2023-02-23T10:18:51.916Z,6.40
2023-02-23T10:19:51.898Z,5.30
2023-02-23T10:20:51.898Z,7.60
2023-02-23T10:21:51.879Z,5.70
2023-02-23T10:22:51.899Z,6.60
2023-02-23T10:23:51.868Z,6.30
2023-02-23T10:24:51.867Z,6.90
2023-02-23T10:25:51.845Z,5.60
2023-02-23T10:26:51.832Z,7.20
2023-02-23T10:27:51.819Z,6.80
2023-02-23T10:28:51.839Z,6.10
2023-02-23T10:29:51.791Z,7.50
2023-02-23T10:30:51.886Z,7.20
2023-02-23T10:31:51.917Z,7.10
2023-02-23T10:32:51.777Z,6.20
2023-02-23T10:33:51.754Z,6.40
2023-02-23T10:34:51.753Z,5.50
2023-02-23T10:35:54.035Z,5.70
2023-02-23T10:36:51.726Z,7.30
2023-02-23T10:37:51.713Z,6.70
2023-02-23T10:38:51.753Z,7.30
2023-02-23T10:39:51.717Z,6.20
2023-02-23T10:40:51.676Z,6.80
2023-02-23T10:41:51.666Z,7.70
2023-02-23T10:42:52.656Z,6.40
2023-02-23T10:43:51.680Z,6.40
2023-02-23T10:44:51.643Z,7.30
2023-02-23T10:45:51.619Z,5.70
2023-02-23T10:46:52.269Z,8.80
2023-02-23T10:47:51.625Z,5.50
2023-02-23T10:48:51.657Z,6.40
2023-02-23T10:49:51.585Z,6.30
2023-02-23T10:50:51.612Z,8.20
2023-02-23T10:51:51.555Z,5.20
2023-02-23T10:52:51.566Z,6.50
2023-02-23T10:53:51.527Z,5.90
2023-02-23T10:54:51.529Z,6.50
2023-02-23T10:55:51.536Z,6.50
2023-02-23T10:56:51.525Z,6.50
2023-02-23T10:57:51.505Z,6.80
2023-02-23T10:58:51.498Z,6.40
2023-02-23T10:59:51.489Z,6.50
2023-02-23T11:00:51.476Z,6.00
2023-02-23T11:02:01.761Z,5.80
2023-02-23T11:02:51.541Z,6.20
2023-02-23T11:03:57.709Z,6.90
2023-02-23T11:04:51.492Z,6.80
2023-02-23T11:05:51.425Z,6.20
2023-02-23T11:06:51.398Z,7.50
2023-02-23T11:07:51.381Z,7.00
2023-02-23T11:08:51.383Z,7.20
2023-02-23T11:09:51.373Z,6.10
2023-02-23T11:10:51.373Z,5.90
2023-02-23T11:11:51.342Z,6.50
2023-02-23T11:12:51.336Z,6.50
2023-02-23T11:13:51.324Z,6.80
2023-02-23T11:14:51.460Z,8.20
2023-02-23T11:15:51.306Z,6.30
2023-02-23T11:16:51.297Z,7.30
2023-02-23T11:17:51.315Z,6.60
2023-02-23T11:18:51.271Z,6.10
2023-02-23T11:19:51.278Z,7.90
2023-02-23T11:20:51.266Z,7.00
2023-02-23T11:21:51.231Z,5.90
2023-02-23T11:22:51.228Z,6.90
2023-02-23T11:23:51.206Z,7.40
2023-02-23T11:24:51.202Z,7.70
2023-02-23T11:25:51.200Z,7.60
2023-02-23T11:26:51.266Z,6.70
2023-02-23T11:27:51.180Z,8.30
2023-02-23T11:28:51.173Z,5.50
2023-02-23T11:29:51.150Z,6.50
2023-02-23T11:30:51.162Z,7.00
2023-02-23T11:31:51.299Z,6.10
2023-02-23T11:32:51.237Z,6.70
2023-02-23T11:33:51.099Z,6.30
2023-02-23T11:34:51.098Z,5.90
2023-02-23T11:35:51.077Z,5.80
2023-02-23T11:36:51.082Z,5.40
2023-02-23T11:37:51.062Z,6.20
2023-02-23T11:38:51.051Z,7.90
2023-02-23T11:39:51.037Z,8.00
2023-02-23T11:40:51.055Z,6.60
2023-02-23T11:41:51.029Z,7.70
2023-02-23T11:42:51.651Z,6.50
2023-02-23T11:43:51.014Z,7.70
2023-02-23T11:44:51.056Z,6.10
2023-02-23T11:45:51.069Z,7.30
2023-02-23T11:46:51.033Z,5.20
2023-02-23T11:47:51.028Z,5.60
2023-02-23T11:48:50.942Z,6.80
2023-02-23T11:49:50.937Z,6.00
2023-02-23T11:50:50.938Z,5.60
2023-02-23T11:51:50.912Z,6.40
2023-02-23T11:52:50.901Z,7.50
2023-02-23T11:53:50.888Z,5.80
2023-02-23T11:54:50.888Z,6.40
2023-02-23T11:55:50.875Z,7.00
2023-02-23T11:56:50.869Z,7.50
2023-02-23T11:57:50.851Z,7.20
2023-02-23T11:58:50.844Z,6.90
2023-02-23T11:59:50.845Z,7.20
2023-02-23T12:00:50.912Z,5.60
2023-02-23T12:01:50.835Z,5.70
2023-02-23T12:02:50.820Z,7.30
2023-02-23T12:03:50.789Z,6.80
2023-02-23T12:04:51.863Z,7.50
2023-02-23T12:05:50.778Z,7.00
2023-02-23T12:06:50.825Z,7.10
2023-02-23T12:07:50.749Z,5.50
2023-02-23T12:08:50.737Z,7.50
2023-02-23T12:09:51.613Z,7.00
2023-02-23T12:10:50.731Z,7.70
2023-02-23T12:11:50.701Z,5.60
2023-02-23T12:12:50.703Z,6.50
2023-02-23T12:13:50.692Z,7.30
2023-02-23T12:14:50.688Z,6.20
2023-02-23T12:15:50.660Z,6.40
2023-02-23T12:16:50.692Z,7.00
2023-02-23T12:17:50.636Z,6.40
2023-02-23T12:18:50.686Z,7.40
2023-02-23T12:19:50.627Z,6.80
2023-02-23T12:20:50.626Z,7.20
2023-02-23T12:21:50.603Z,6.10
2023-02-23T12:22:50.586Z,7.70
2023-02-23T12:23:52.868Z,7.20
2023-02-23T12:24:50.566Z,6.40
2023-02-23T12:25:50.579Z,7.00
2023-02-23T12:26:50.540Z,7.90
2023-02-23T12:27:50.547Z,6.20
2023-02-23T12:28:50.579Z,6.70
2023-02-23T12:29:50.508Z,7.80
2023-02-23T12:30:50.578Z,5.40
2023-02-23T12:31:50.698Z,5.90
2023-02-23T12:32:50.497Z,6.20
2023-02-23T12:33:50.459Z,7.70
2023-02-23T12:34:50.471Z,7.90
2023-02-23T12:35:50.458Z,7.00
2023-02-23T12:36:50.446Z,5.20
2023-02-23T12:37:50.426Z,6.30
2023-02-23T12:38:50.420Z,6.30
2023-02-23T12:39:50.409Z,5.60
2023-02-23T12:40:51.880Z,5.50
2023-02-23T12:41:50.421Z,6.10
2023-02-23T12:42:50.443Z,6.30
2023-02-23T12:43:50.376Z,6.30
2023-02-23T12:44:50.376Z,7.70
2023-02-23T12:45:50.396Z,6.70
2023-02-23T12:46:50.357Z,6.70
2023-02-23T12:47:50.323Z,7.70
2023-02-23T12:48:50.318Z,8.20
2023-02-23T12:49:50.290Z,9.10
2023-02-23T12:50:50.311Z,9.30
2023-02-23T12:51:50.299Z,9.90
2023-02-23T12:52:50.309Z,10.30
2023-02-23T12:53:50.261Z,10.80
2023-02-23T12:54:50.240Z,11.80
2023-02-23T12:55:50.234Z,10.80
2023-02-23T12:56:50.242Z,11.70
2023-02-23T12:57:50.211Z,11.50
2023-02-23T12:58:50.201Z,12.20
2023-02-23T12:59:50.199Z,10.40
2023-02-23T13:00:50.597Z,10.90
2023-02-23T13:01:50.179Z,12.90
2023-02-23T13:02:50.208Z,12.40
2023-02-23T13:03:50.194Z,12.70
2023-02-23T13:04:50.154Z,9.90
2023-02-23T13:05:50.142Z,11.20
2023-02-23T13:06:50.112Z,12.80
2023-02-23T13:07:50.124Z,11.80
2023-02-23T13:08:50.089Z,16.40
2023-02-23T13:09:50.166Z,12.20
2023-02-23T13:10:50.073Z,13.30
2023-02-23T13:11:50.071Z,11.10
2023-02-23T13:12:50.114Z,11.20
2023-02-23T13:13:50.036Z,10.90
2023-02-23T13:14:50.022Z,10.60
2023-02-23T13:15:50.073Z,10.20
2023-02-23T13:16:50.060Z,9.60
2023-02-23T13:17:49.995Z,9.80